sensor_id;sensor_type;location;lat;lon;timestamp;P1;durP1;ratioP1;P2;durP2;ratioP2
27231;SDS011;61835;50.196;6.454;2022-09-12T00:02:21;4.80;;;4.00;;
27231;SDS011;61835;50.196;6.454;2022-09-12T00:04:46;3.78;;;2.63;;
27231;SDS011;61835;50.196;6.454;2022-09-12T00:07:12;3.60;;;1.95;;
27231;SDS011;61835;50.196;6.454;2022-09-12T00:09:37;3.83;;;2.67;;
27231;SDS011;61835;50.196;6.454;2022-09-12T00:12:03;4.80;;;1.80;;
27231;SDS011;61835;50.196;6.454;2022-09-12T00:14:29;3.38;;;2.85;;
27231;SDS011;61835;50.196;6.454;2022-09-12T00:16:57;3.92;;;2.72;;
27231;SDS011;61835;50.196;6.454;2022-09-12T00:19:24;6.50;;;2.17;;
27231;SDS011;61835;50.196;6.454;2022-09-12T00:21:49;5.45;;;2.25;;
27231;SDS011;61835;50.196;6.454;2022-09-12T00:24:15;5.10;;;3.60;;
27231;SDS011;61835;50.196;6.454;2022-09-12T00:26:40;2.13;;;1.85;;
27231;SDS011;61835;50.196;6.454;2022-09-12T00:29:05;4.30;;;2.70;;
27231;SDS011;61835;50.196;6.454;2022-09-12T00:31:31;1.85;;;1.70;;
27231;SDS011;61835;50.196;6.454;2022-09-12T00:33:57;4.55;;;2.78;;
27231;SDS011;61835;50.196;6.454;2022-09-12T00:36:25;5.32;;;2.78;;
27231;SDS011;61835;50.196;6.454;2022-09-12T00:38:51;2.25;;;2.03;;
27231;SDS011;61835;50.196;6.454;2022-09-12T00:43:53;4.45;;;2.47;;
27231;SDS011;61835;50.196;6.454;2022-09-12T00:46:25;2.90;;;2.28;;
27231;SDS011;61835;50.196;6.454;2022-09-12T00:48:57;6.63;;;3.72;;
27231;SDS011;61835;50.196;6.454;2022-09-12T00:51:49;3.55;;;2.88;;
27231;SDS011;61835;50.196;6.454;2022-09-12T00:54:20;4.35;;;2.53;;
27231;SDS011;61835;50.196;6.454;2022-09-12T00:56:49;1.98;;;1.42;;
27231;SDS011;61835;50.196;6.454;2022-09-12T00:59:21;3.08;;;2.78;;
27231;SDS011;61835;50.196;6.454;2022-09-12T01:02:02;3.92;;;2.30;;
27231;SDS011;61835;50.196;6.454;2022-09-12T01:04:28;6.65;;;3.58;;
27231;SDS011;61835;50.196;6.454;2022-09-12T01:06:54;3.00;;;2.47;;
27231;SDS011;61835;50.196;6.454;2022-09-12T01:09:22;7.15;;;2.88;;
27231;SDS011;61835;50.196;6.454;2022-09-12T01:11:49;4.10;;;2.42;;
27231;SDS011;61835;50.196;6.454;2022-09-12T01:14:17;4.63;;;2.63;;
27231;SDS011;61835;50.196;6.454;2022-09-12T01:16:43;2.92;;;2.58;;
27231;SDS011;61835;50.196;6.454;2022-09-12T01:24:48;4.75;;;3.60;;
27231;SDS011;61835;50.196;6.454;2022-09-12T01:30:21;3.92;;;2.88;;
27231;SDS011;61835;50.196;6.454;2022-09-12T01:35:40;4.50;;;3.05;;
27231;SDS011;61835;50.196;6.454;2022-09-12T01:38:35;7.80;;;3.03;;
27231;SDS011;61835;50.196;6.454;2022-09-12T01:43:34;5.10;;;3.03;;
27231;SDS011;61835;50.196;6.454;2022-09-12T01:46:16;4.03;;;2.88;;
27231;SDS011;61835;50.196;6.454;2022-09-12T01:48:47;5.60;;;4.07;;
27231;SDS011;61835;50.196;6.454;2022-09-12T01:51:34;6.28;;;3.20;;
27231;SDS011;61835;50.196;6.454;2022-09-12T01:54:14;7.85;;;3.97;;
27231;SDS011;61835;50.196;6.454;2022-09-12T01:56:45;11.23;;;4.60;;
27231;SDS011;61835;50.196;6.454;2022-09-12T01:59:15;5.22;;;4.47;;
27231;SDS011;61835;50.196;6.454;2022-09-12T02:02:20;11.57;;;5.45;;
27231;SDS011;61835;50.196;6.454;2022-09-12T02:04:45;10.80;;;3.60;;
27231;SDS011;61835;50.196;6.454;2022-09-12T02:07:18;3.38;;;3.03;;
27231;SDS011;61835;50.196;6.454;2022-09-12T02:09:57;4.45;;;3.88;;
27231;SDS011;61835;50.196;6.454;2022-09-12T02:12:28;5.15;;;2.60;;
27231;SDS011;61835;50.196;6.454;2022-09-12T02:15:02;5.70;;;4.60;;
27231;SDS011;61835;50.196;6.454;2022-09-12T02:17:33;4.88;;;3.78;;
27231;SDS011;61835;50.196;6.454;2022-09-12T02:20:22;5.07;;;3.60;;
27231;SDS011;61835;50.196;6.454;2022-09-12T02:22:51;8.73;;;3.40;;
27231;SDS011;61835;50.196;6.454;2022-09-12T02:25:19;9.70;;;5.25;;
27231;SDS011;61835;50.196;6.454;2022-09-12T02:27:59;4.65;;;3.10;;
27231;SDS011;61835;50.196;6.454;2022-09-12T02:30:30;4.75;;;3.40;;
27231;SDS011;61835;50.196;6.454;2022-09-12T02:33:20;7.63;;;3.55;;
27231;SDS011;61835;50.196;6.454;2022-09-12T02:35:52;4.32;;;2.92;;
27231;SDS011;61835;50.196;6.454;2022-09-12T02:38:40;8.23;;;2.50;;
27231;SDS011;61835;50.196;6.454;2022-09-12T02:41:10;6.03;;;4.15;;
27231;SDS011;61835;50.196;6.454;2022-09-12T02:43:38;5.20;;;2.95;;
27231;SDS011;61835;50.196;6.454;2022-09-12T02:46:05;9.10;;;5.25;;
27231;SDS011;61835;50.196;6.454;2022-09-12T02:48:36;4.85;;;4.07;;
27231;SDS011;61835;50.196;6.454;2022-09-12T02:51:04;4.55;;;4.13;;
27231;SDS011;61835;50.196;6.454;2022-09-12T02:53:30;5.15;;;3.53;;
27231;SDS011;61835;50.196;6.454;2022-09-12T02:55:56;7.07;;;3.47;;
27231;SDS011;61835;50.196;6.454;2022-09-12T02:58:22;3.78;;;2.75;;
27231;SDS011;61835;50.196;6.454;2022-09-12T03:06:35;6.80;;;4.47;;
27231;SDS011;61835;50.196;6.454;2022-09-12T03:09:12;3.95;;;3.58;;
27231;SDS011;61835;50.196;6.454;2022-09-12T03:20:00;12.85;;;3.97;;
27231;SDS011;61835;50.196;6.454;2022-09-12T03:27:38;12.70;;;4.82;;
27231;SDS011;61835;50.196;6.454;2022-09-12T03:30:12;8.75;;;3.15;;
27231;SDS011;61835;50.196;6.454;2022-09-12T03:35:09;4.95;;;4.45;;
27231;SDS011;61835;50.196;6.454;2022-09-12T03:37:35;4.28;;;3.35;;
27231;SDS011;61835;50.196;6.454;2022-09-12T03:40:01;5.57;;;3.25;;
27231;SDS011;61835;50.196;6.454;2022-09-12T03:42:31;10.77;;;5.47;;
27231;SDS011;61835;50.196;6.454;2022-09-12T03:44:56;8.30;;;4.82;;
27231;SDS011;61835;50.196;6.454;2022-09-12T03:47:22;4.75;;;3.05;;
27231;SDS011;61835;50.196;6.454;2022-09-12T03:49:47;8.40;;;3.90;;
27231;SDS011;61835;50.196;6.454;2022-09-12T03:52:12;4.28;;;3.42;;
27231;SDS011;61835;50.196;6.454;2022-09-12T03:54:38;6.75;;;3.55;;
27231;SDS011;61835;50.196;6.454;2022-09-12T03:57:04;7.53;;;4.50;;
27231;SDS011;61835;50.196;6.454;2022-09-12T03:59:29;4.78;;;3.28;;
27231;SDS011;61835;50.196;6.454;2022-09-12T04:01:54;4.80;;;3.70;;
27231;SDS011;61835;50.196;6.454;2022-09-12T04:04:20;4.95;;;2.75;;
27231;SDS011;61835;50.196;6.454;2022-09-12T04:06:45;5.88;;;3.67;;
27231;SDS011;61835;50.196;6.454;2022-09-12T04:09:11;5.30;;;3.50;;
27231;SDS011;61835;50.196;6.454;2022-09-12T04:11:36;7.65;;;4.10;;
27231;SDS011;61835;50.196;6.454;2022-09-12T04:14:01;7.80;;;4.20;;
27231;SDS011;61835;50.196;6.454;2022-09-12T04:16:27;4.45;;;4.05;;
27231;SDS011;61835;50.196;6.454;2022-09-12T04:18:52;4.03;;;3.67;;
27231;SDS011;61835;50.196;6.454;2022-09-12T04:21:18;5.18;;;4.00;;
27231;SDS011;61835;50.196;6.454;2022-09-12T04:23:45;10.05;;;3.92;;
27231;SDS011;61835;50.196;6.454;2022-09-12T04:26:12;3.58;;;3.28;;
27231;SDS011;61835;50.196;6.454;2022-09-12T04:28:38;5.60;;;4.07;;
27231;SDS011;61835;50.196;6.454;2022-09-12T04:31:08;5.55;;;3.72;;
27231;SDS011;61835;50.196;6.454;2022-09-12T04:33:46;5.37;;;3.20;;
27231;SDS011;61835;50.196;6.454;2022-09-12T04:36:16;5.85;;;4.28;;
27231;SDS011;61835;50.196;6.454;2022-09-12T04:38:43;5.88;;;2.97;;
27231;SDS011;61835;50.196;6.454;2022-09-12T04:41:10;3.25;;;2.95;;
27231;SDS011;61835;50.196;6.454;2022-09-12T04:43:36;2.33;;;2.13;;
27231;SDS011;61835;50.196;6.454;2022-09-12T04:46:05;6.20;;;3.33;;
27231;SDS011;61835;50.196;6.454;2022-09-12T04:48:34;4.57;;;4.18;;
27231;SDS011;61835;50.196;6.454;2022-09-12T04:51:10;4.78;;;3.42;;
27231;SDS011;61835;50.196;6.454;2022-09-12T04:53:40;3.15;;;2.67;;
27231;SDS011;61835;50.196;6.454;2022-09-12T04:56:07;5.60;;;3.58;;
27231;SDS011;61835;50.196;6.454;2022-09-12T04:58:34;4.43;;;3.17;;
27231;SDS011;61835;50.196;6.454;2022-09-12T05:01:05;2.50;;;1.67;;
27231;SDS011;61835;50.196;6.454;2022-09-12T05:03:35;4.38;;;2.38;;
27231;SDS011;61835;50.196;6.454;2022-09-12T05:06:05;7.05;;;4.15;;
27231;SDS011;61835;50.196;6.454;2022-09-12T05:08:32;4.18;;;3.08;;
27231;SDS011;61835;50.196;6.454;2022-09-12T05:11:03;3.92;;;2.40;;
27231;SDS011;61835;50.196;6.454;2022-09-12T05:13:31;6.82;;;2.50;;
27231;SDS011;61835;50.196;6.454;2022-09-12T05:15:58;5.45;;;3.28;;
27231;SDS011;61835;50.196;6.454;2022-09-12T05:18:25;3.95;;;2.90;;
27231;SDS011;61835;50.196;6.454;2022-09-12T05:20:54;2.80;;;2.45;;
27231;SDS011;61835;50.196;6.454;2022-09-12T05:23:20;5.95;;;2.67;;
27231;SDS011;61835;50.196;6.454;2022-09-12T05:25:52;6.70;;;3.70;;
27231;SDS011;61835;50.196;6.454;2022-09-12T05:28:19;4.32;;;3.10;;
27231;SDS011;61835;50.196;6.454;2022-09-12T05:30:46;3.35;;;2.60;;
27231;SDS011;61835;50.196;6.454;2022-09-12T05:33:12;3.50;;;2.22;;
27231;SDS011;61835;50.196;6.454;2022-09-12T05:35:38;5.90;;;3.55;;
27231;SDS011;61835;50.196;6.454;2022-09-12T05:38:04;4.50;;;2.83;;
27231;SDS011;61835;50.196;6.454;2022-09-12T05:40:31;3.50;;;2.83;;
27231;SDS011;61835;50.196;6.454;2022-09-12T05:42:56;5.40;;;3.60;;
27231;SDS011;61835;50.196;6.454;2022-09-12T05:45:22;6.03;;;4.25;;
27231;SDS011;61835;50.196;6.454;2022-09-12T05:47:47;7.28;;;3.72;;
27231;SDS011;61835;50.196;6.454;2022-09-12T05:50:13;9.73;;;4.13;;
27231;SDS011;61835;50.196;6.454;2022-09-12T05:52:38;7.45;;;3.67;;
27231;SDS011;61835;50.196;6.454;2022-09-12T05:55:04;6.50;;;2.75;;
27231;SDS011;61835;50.196;6.454;2022-09-12T05:57:29;4.35;;;3.13;;
27231;SDS011;61835;50.196;6.454;2022-09-12T05:59:55;5.35;;;2.08;;
27231;SDS011;61835;50.196;6.454;2022-09-12T06:02:20;2.63;;;2.00;;
27231;SDS011;61835;50.196;6.454;2022-09-12T06:04:46;6.00;;;3.70;;
27231;SDS011;61835;50.196;6.454;2022-09-12T06:07:11;4.32;;;2.65;;
27231;SDS011;61835;50.196;6.454;2022-09-12T06:09:37;5.90;;;4.15;;
27231;SDS011;61835;50.196;6.454;2022-09-12T06:12:02;4.18;;;3.13;;
27231;SDS011;61835;50.196;6.454;2022-09-12T06:14:28;2.47;;;2.28;;
27231;SDS011;61835;50.196;6.454;2022-09-12T06:16:53;3.75;;;3.10;;
27231;SDS011;61835;50.196;6.454;2022-09-12T06:19:20;5.57;;;3.70;;
27231;SDS011;61835;50.196;6.454;2022-09-12T06:21:47;4.93;;;3.60;;
27231;SDS011;61835;50.196;6.454;2022-09-12T06:24:14;10.30;;;5.85;;
27231;SDS011;61835;50.196;6.454;2022-09-12T06:26:41;4.47;;;3.35;;
27231;SDS011;61835;50.196;6.454;2022-09-12T06:29:08;9.90;;;4.90;;
27231;SDS011;61835;50.196;6.454;2022-09-12T06:31:36;9.57;;;3.70;;
27231;SDS011;61835;50.196;6.454;2022-09-12T06:34:03;3.95;;;3.15;;
27231;SDS011;61835;50.196;6.454;2022-09-12T06:36:32;5.03;;;3.53;;
27231;SDS011;61835;50.196;6.454;2022-09-12T06:39:01;5.28;;;3.92;;
27231;SDS011;61835;50.196;6.454;2022-09-12T06:41:29;7.05;;;4.63;;
27231;SDS011;61835;50.196;6.454;2022-09-12T06:43:56;9.10;;;4.72;;
27231;SDS011;61835;50.196;6.454;2022-09-12T06:46:21;7.22;;;3.88;;
27231;SDS011;61835;50.196;6.454;2022-09-12T06:48:47;13.40;;;6.20;;
27231;SDS011;61835;50.196;6.454;2022-09-12T06:51:14;5.45;;;4.45;;
27231;SDS011;61835;50.196;6.454;2022-09-12T06:53:41;7.57;;;4.35;;
27231;SDS011;61835;50.196;6.454;2022-09-12T06:56:12;10.95;;;5.15;;
27231;SDS011;61835;50.196;6.454;2022-09-12T06:58:40;6.38;;;3.92;;
27231;SDS011;61835;50.196;6.454;2022-09-12T07:01:10;9.52;;;4.60;;
27231;SDS011;61835;50.196;6.454;2022-09-12T07:03:36;6.28;;;4.72;;
27231;SDS011;61835;50.196;6.454;2022-09-12T07:06:13;8.13;;;5.15;;
27231;SDS011;61835;50.196;6.454;2022-09-12T07:08:40;8.85;;;4.13;;
27231;SDS011;61835;50.196;6.454;2022-09-12T07:13:42;7.13;;;3.97;;
27231;SDS011;61835;50.196;6.454;2022-09-12T07:16:08;10.13;;;4.10;;
27231;SDS011;61835;50.196;6.454;2022-09-12T07:18:34;6.00;;;4.20;;
27231;SDS011;61835;50.196;6.454;2022-09-12T07:21:02;5.70;;;3.30;;
27231;SDS011;61835;50.196;6.454;2022-09-12T07:23:30;6.55;;;3.42;;
27231;SDS011;61835;50.196;6.454;2022-09-12T07:25:57;4.93;;;2.85;;
27231;SDS011;61835;50.196;6.454;2022-09-12T07:28:24;8.02;;;4.10;;
27231;SDS011;61835;50.196;6.454;2022-09-12T07:30:54;4.85;;;2.85;;
27231;SDS011;61835;50.196;6.454;2022-09-12T07:33:25;7.80;;;3.72;;
27231;SDS011;61835;50.196;6.454;2022-09-12T07:35:52;10.27;;;4.45;;
27231;SDS011;61835;50.196;6.454;2022-09-12T07:38:21;5.15;;;3.35;;
27231;SDS011;61835;50.196;6.454;2022-09-12T07:40:47;7.65;;;3.22;;
27231;SDS011;61835;50.196;6.454;2022-09-12T07:43:12;4.82;;;3.08;;
27231;SDS011;61835;50.196;6.454;2022-09-12T07:45:37;6.15;;;2.45;;
27231;SDS011;61835;50.196;6.454;2022-09-12T07:48:06;3.65;;;2.63;;
27231;SDS011;61835;50.196;6.454;2022-09-12T07:50:31;7.40;;;3.05;;
27231;SDS011;61835;50.196;6.454;2022-09-12T07:52:57;4.90;;;2.47;;
27231;SDS011;61835;50.196;6.454;2022-09-12T07:55:23;4.97;;;2.00;;
27231;SDS011;61835;50.196;6.454;2022-09-12T07:57:49;4.15;;;2.28;;
27231;SDS011;61835;50.196;6.454;2022-09-12T08:00:15;8.48;;;2.38;;
27231;SDS011;61835;50.196;6.454;2022-09-12T08:02:42;3.97;;;2.65;;
27231;SDS011;61835;50.196;6.454;2022-09-12T08:05:07;4.28;;;2.47;;
27231;SDS011;61835;50.196;6.454;2022-09-12T08:07:33;5.13;;;1.80;;
27231;SDS011;61835;50.196;6.454;2022-09-12T08:09:59;5.32;;;2.17;;
27231;SDS011;61835;50.196;6.454;2022-09-12T08:12:26;4.30;;;2.05;;
27231;SDS011;61835;50.196;6.454;2022-09-12T08:14:52;3.65;;;2.35;;
27231;SDS011;61835;50.196;6.454;2022-09-12T08:17:18;4.85;;;2.20;;
27231;SDS011;61835;50.196;6.454;2022-09-12T08:19:43;5.03;;;2.22;;
27231;SDS011;61835;50.196;6.454;2022-09-12T08:22:09;3.30;;;1.92;;
27231;SDS011;61835;50.196;6.454;2022-09-12T08:24:35;7.53;;;3.08;;
27231;SDS011;61835;50.196;6.454;2022-09-12T08:27:01;4.10;;;1.33;;
27231;SDS011;61835;50.196;6.454;2022-09-12T08:29:26;2.40;;;1.23;;
27231;SDS011;61835;50.196;6.454;2022-09-12T08:31:51;4.95;;;1.48;;
27231;SDS011;61835;50.196;6.454;2022-09-12T08:34:17;4.60;;;2.15;;
27231;SDS011;61835;50.196;6.454;2022-09-12T08:36:43;2.70;;;1.02;;
27231;SDS011;61835;50.196;6.454;2022-09-12T08:39:10;3.33;;;1.80;;
27231;SDS011;61835;50.196;6.454;2022-09-12T08:41:37;6.55;;;2.28;;
27231;SDS011;61835;50.196;6.454;2022-09-12T08:48:56;4.68;;;1.52;;
27231;SDS011;61835;50.196;6.454;2022-09-12T08:51:24;2.45;;;1.08;;
27231;SDS011;61835;50.196;6.454;2022-09-12T08:53:52;1.63;;;0.98;;
27231;SDS011;61835;50.196;6.454;2022-09-12T08:56:20;2.67;;;1.67;;
27231;SDS011;61835;50.196;6.454;2022-09-12T08:58:46;3.08;;;2.10;;
27231;SDS011;61835;50.196;6.454;2022-09-12T09:01:32;2.58;;;1.05;;
27231;SDS011;61835;50.196;6.454;2022-09-12T09:07:16;4.93;;;1.40;;
27231;SDS011;61835;50.196;6.454;2022-09-12T09:10:10;3.00;;;1.45;;
27231;SDS011;61835;50.196;6.454;2022-09-12T09:15:31;3.35;;;1.55;;
27231;SDS011;61835;50.196;6.454;2022-09-12T09:18:01;2.85;;;1.20;;
27231;SDS011;61835;50.196;6.454;2022-09-12T09:20:33;1.42;;;0.90;;
27231;SDS011;61835;50.196;6.454;2022-09-12T09:28:22;1.00;;;0.70;;
27231;SDS011;61835;50.196;6.454;2022-09-12T09:30:55;6.22;;;0.60;;
27231;SDS011;61835;50.196;6.454;2022-09-12T09:33:22;2.65;;;1.40;;
27231;SDS011;61835;50.196;6.454;2022-09-12T09:41:30;2.13;;;0.93;;
27231;SDS011;61835;50.196;6.454;2022-09-12T09:44:16;2.38;;;1.08;;
27231;SDS011;61835;50.196;6.454;2022-09-12T09:46:41;1.10;;;0.77;;
27231;SDS011;61835;50.196;6.454;2022-09-12T09:49:08;1.65;;;1.10;;
27231;SDS011;61835;50.196;6.454;2022-09-12T09:51:40;1.10;;;0.57;;
27231;SDS011;61835;50.196;6.454;2022-09-12T09:56:47;3.10;;;1.10;;
27231;SDS011;61835;50.196;6.454;2022-09-12T10:01:51;0.65;;;0.30;;
27231;SDS011;61835;50.196;6.454;2022-09-12T10:04:30;1.90;;;0.50;;
27231;SDS011;61835;50.196;6.454;2022-09-12T10:07:00;1.98;;;1.10;;
27231;SDS011;61835;50.196;6.454;2022-09-12T10:09:27;1.70;;;0.85;;
27231;SDS011;61835;50.196;6.454;2022-09-12T10:11:57;1.05;;;0.55;;
27231;SDS011;61835;50.196;6.454;2022-09-12T10:14:30;1.50;;;0.35;;
27231;SDS011;61835;50.196;6.454;2022-09-12T10:17:21;0.68;;;0.40;;
27231;SDS011;61835;50.196;6.454;2022-09-12T10:19:49;1.30;;;0.70;;
27231;SDS011;61835;50.196;6.454;2022-09-12T10:22:16;1.27;;;0.88;;
27231;SDS011;61835;50.196;6.454;2022-09-12T10:24:50;0.70;;;0.50;;
27231;SDS011;61835;50.196;6.454;2022-09-12T10:27:20;0.70;;;0.40;;
27231;SDS011;61835;50.196;6.454;2022-09-12T10:30:00;0.77;;;0.30;;
27231;SDS011;61835;50.196;6.454;2022-09-12T10:32:37;1.38;;;0.82;;
27231;SDS011;61835;50.196;6.454;2022-09-12T10:35:06;1.38;;;0.60;;
27231;SDS011;61835;50.196;6.454;2022-09-12T10:37:42;1.25;;;0.70;;
27231;SDS011;61835;50.196;6.454;2022-09-12T10:40:36;2.03;;;0.75;;
27231;SDS011;61835;50.196;6.454;2022-09-12T10:43:15;0.73;;;0.40;;
27231;SDS011;61835;50.196;6.454;2022-09-12T10:45:55;1.38;;;0.40;;
27231;SDS011;61835;50.196;6.454;2022-09-12T10:50:58;0.40;;;0.20;;
27231;SDS011;61835;50.196;6.454;2022-09-12T10:56:08;1.27;;;0.60;;
27231;SDS011;61835;50.196;6.454;2022-09-12T11:04:04;0.70;;;0.38;;
27231;SDS011;61835;50.196;6.454;2022-09-12T11:06:56;0.65;;;0.52;;
27231;SDS011;61835;50.196;6.454;2022-09-12T11:10:00;0.70;;;0.32;;
27231;SDS011;61835;50.196;6.454;2022-09-12T11:12:40;1.35;;;0.60;;
27231;SDS011;61835;50.196;6.454;2022-09-12T11:21:18;1.00;;;0.40;;
27231;SDS011;61835;50.196;6.454;2022-09-12T11:32:52;1.67;;;0.45;;
27231;SDS011;61835;50.196;6.454;2022-09-12T11:35:33;3.50;;;0.50;;
27231;SDS011;61835;50.196;6.454;2022-09-12T11:38:17;0.90;;;0.38;;
27231;SDS011;61835;50.196;6.454;2022-09-12T11:41:06;0.95;;;0.35;;
27231;SDS011;61835;50.196;6.454;2022-09-12T11:46:33;1.27;;;0.50;;
27231;SDS011;61835;50.196;6.454;2022-09-12T11:56:44;1.27;;;0.55;;
27231;SDS011;61835;50.196;6.454;2022-09-12T11:59:17;2.80;;;0.57;;
27231;SDS011;61835;50.196;6.454;2022-09-12T12:02:03;2.97;;;0.93;;
27231;SDS011;61835;50.196;6.454;2022-09-12T12:04:42;0.93;;;0.40;;
27231;SDS011;61835;50.196;6.454;2022-09-12T12:07:16;0.85;;;0.50;;
27231;SDS011;61835;50.196;6.454;2022-09-12T12:09:45;2.10;;;0.30;;
27231;SDS011;61835;50.196;6.454;2022-09-12T12:12:20;0.95;;;0.50;;
27231;SDS011;61835;50.196;6.454;2022-09-12T12:14:49;0.55;;;0.20;;
27231;SDS011;61835;50.196;6.454;2022-09-12T12:17:18;0.35;;;0.20;;
27231;SDS011;61835;50.196;6.454;2022-09-12T12:19:46;1.13;;;0.25;;
27231;SDS011;61835;50.196;6.454;2022-09-12T12:22:22;1.13;;;0.47;;
27231;SDS011;61835;50.196;6.454;2022-09-12T12:25:03;0.98;;;0.40;;
27231;SDS011;61835;50.196;6.454;2022-09-12T12:38:30;1.20;;;0.25;;
27231;SDS011;61835;50.196;6.454;2022-09-12T12:43:41;1.10;;;0.32;;
27231;SDS011;61835;50.196;6.454;2022-09-12T12:46:11;0.60;;;0.30;;
27231;SDS011;61835;50.196;6.454;2022-09-12T12:48:54;1.35;;;0.40;;
27231;SDS011;61835;50.196;6.454;2022-09-12T12:51:59;0.55;;;0.35;;
27231;SDS011;61835;50.196;6.454;2022-09-12T12:59:46;0.50;;;0.10;;
27231;SDS011;61835;50.196;6.454;2022-09-12T13:02:37;0.47;;;0.20;;
27231;SDS011;61835;50.196;6.454;2022-09-12T13:05:14;0.82;;;0.40;;
27231;SDS011;61835;50.196;6.454;2022-09-12T13:07:42;1.58;;;0.40;;
27231;SDS011;61835;50.196;6.454;2022-09-12T13:10:18;0.65;;;0.32;;
27231;SDS011;61835;50.196;6.454;2022-09-12T13:12:47;1.20;;;0.30;;
27231;SDS011;61835;50.196;6.454;2022-09-12T13:15:46;2.10;;;0.70;;
27231;SDS011;61835;50.196;6.454;2022-09-12T13:18:14;1.63;;;0.30;;
27231;SDS011;61835;50.196;6.454;2022-09-12T13:23:44;0.68;;;0.22;;
27231;SDS011;61835;50.196;6.454;2022-09-12T13:26:24;5.13;;;0.30;;
27231;SDS011;61835;50.196;6.454;2022-09-12T13:29:07;1.10;;;0.40;;
27231;SDS011;61835;50.196;6.454;2022-09-12T13:31:37;0.70;;;0.22;;
27231;SDS011;61835;50.196;6.454;2022-09-12T13:34:06;2.85;;;0.68;;
27231;SDS011;61835;50.196;6.454;2022-09-12T13:39:28;0.50;;;0.30;;
27231;SDS011;61835;50.196;6.454;2022-09-12T13:42:21;1.63;;;0.32;;
27231;SDS011;61835;50.196;6.454;2022-09-12T13:45:10;0.47;;;0.30;;
27231;SDS011;61835;50.196;6.454;2022-09-12T13:47:40;0.35;;;0.22;;
27231;SDS011;61835;50.196;6.454;2022-09-12T13:50:11;0.40;;;0.30;;
27231;SDS011;61835;50.196;6.454;2022-09-12T13:52:41;1.00;;;0.30;;
27231;SDS011;61835;50.196;6.454;2022-09-12T13:55:31;0.60;;;0.38;;
27231;SDS011;61835;50.196;6.454;2022-09-12T13:58:01;0.63;;;0.25;;
27231;SDS011;61835;50.196;6.454;2022-09-12T14:00:58;0.20;;;0.10;;
27231;SDS011;61835;50.196;6.454;2022-09-12T14:03:37;0.22;;;0.20;;
27231;SDS011;61835;50.196;6.454;2022-09-12T14:08:53;0.10;;;0.10;;
27231;SDS011;61835;50.196;6.454;2022-09-12T14:11:25;0.20;;;0.10;;
27231;SDS011;61835;50.196;6.454;2022-09-12T14:13:52;0.20;;;0.10;;
27231;SDS011;61835;50.196;6.454;2022-09-12T14:16:20;0.63;;;0.30;;
27231;SDS011;61835;50.196;6.454;2022-09-12T14:18:48;0.30;;;0.10;;
27231;SDS011;61835;50.196;6.454;2022-09-12T14:23:56;0.40;;;0.17;;
27231;SDS011;61835;50.196;6.454;2022-09-12T14:26:24;0.60;;;0.30;;
27231;SDS011;61835;50.196;6.454;2022-09-12T14:28:52;0.57;;;0.20;;
27231;SDS011;61835;50.196;6.454;2022-09-12T14:31:32;0.70;;;0.30;;
27231;SDS011;61835;50.196;6.454;2022-09-12T14:34:10;0.45;;;0.20;;
27231;SDS011;61835;50.196;6.454;2022-09-12T14:36:49;0.82;;;0.30;;
27231;SDS011;61835;50.196;6.454;2022-09-12T14:39:18;0.85;;;0.40;;
27231;SDS011;61835;50.196;6.454;2022-09-12T14:42:12;0.68;;;0.20;;
27231;SDS011;61835;50.196;6.454;2022-09-12T14:44:41;0.50;;;0.20;;
27231;SDS011;61835;50.196;6.454;2022-09-12T14:47:19;2.33;;;0.85;;
27231;SDS011;61835;50.196;6.454;2022-09-12T14:49:48;0.55;;;0.13;;
27231;SDS011;61835;50.196;6.454;2022-09-12T14:52:33;1.00;;;0.40;;
27231;SDS011;61835;50.196;6.454;2022-09-12T14:55:00;0.30;;;0.10;;
27231;SDS011;61835;50.196;6.454;2022-09-12T14:57:32;0.85;;;0.57;;
27231;SDS011;61835;50.196;6.454;2022-09-12T15:00:04;1.40;;;0.30;;
27231;SDS011;61835;50.196;6.454;2022-09-12T15:02:44;0.77;;;0.25;;
27231;SDS011;61835;50.196;6.454;2022-09-12T15:07:37;0.10;;;0.05;;
27231;SDS011;61835;50.196;6.454;2022-09-12T15:10:21;1.17;;;0.10;;
27231;SDS011;61835;50.196;6.454;2022-09-12T15:13:03;0.82;;;0.20;;
27231;SDS011;61835;50.196;6.454;2022-09-12T15:15:37;1.25;;;0.28;;
27231;SDS011;61835;50.196;6.454;2022-09-12T15:18:03;0.55;;;0.20;;
27231;SDS011;61835;50.196;6.454;2022-09-12T15:20:29;0.22;;;0.10;;
27231;SDS011;61835;50.196;6.454;2022-09-12T15:22:56;0.30;;;0.10;;
27231;SDS011;61835;50.196;6.454;2022-09-12T15:25:22;0.65;;;0.30;;
27231;SDS011;61835;50.196;6.454;2022-09-12T15:27:48;0.70;;;0.52;;
27231;SDS011;61835;50.196;6.454;2022-09-12T15:30:16;2.03;;;0.28;;
27231;SDS011;61835;50.196;6.454;2022-09-12T15:32:41;0.30;;;0.15;;
27231;SDS011;61835;50.196;6.454;2022-09-12T15:35:21;0.40;;;0.10;;
27231;SDS011;61835;50.196;6.454;2022-09-12T15:37:48;0.30;;;0.10;;
27231;SDS011;61835;50.196;6.454;2022-09-12T15:40:13;0.32;;;0.20;;
27231;SDS011;61835;50.196;6.454;2022-09-12T15:42:39;0.70;;;0.30;;
27231;SDS011;61835;50.196;6.454;2022-09-12T15:45:20;1.48;;;0.20;;
27231;SDS011;61835;50.196;6.454;2022-09-12T15:47:47;0.32;;;0.10;;
27231;SDS011;61835;50.196;6.454;2022-09-12T15:50:13;0.20;;;0.10;;
27231;SDS011;61835;50.196;6.454;2022-09-12T15:52:39;0.52;;;0.28;;
27231;SDS011;61835;50.196;6.454;2022-09-12T15:55:08;0.20;;;0.10;;
27231;SDS011;61835;50.196;6.454;2022-09-12T15:57:40;0.10;;;0.10;;
27231;SDS011;61835;50.196;6.454;2022-09-12T16:00:06;1.90;;;0.32;;
27231;SDS011;61835;50.196;6.454;2022-09-12T16:02:36;0.43;;;0.20;;
27231;SDS011;61835;50.196;6.454;2022-09-12T16:05:02;0.88;;;0.30;;
27231;SDS011;61835;50.196;6.454;2022-09-12T16:07:29;0.43;;;0.20;;
27231;SDS011;61835;50.196;6.454;2022-09-12T16:09:54;0.95;;;0.45;;
27231;SDS011;61835;50.196;6.454;2022-09-12T16:12:20;0.32;;;0.20;;
27231;SDS011;61835;50.196;6.454;2022-09-12T16:14:45;0.30;;;0.10;;
27231;SDS011;61835;50.196;6.454;2022-09-12T16:17:11;0.43;;;0.20;;
27231;SDS011;61835;50.196;6.454;2022-09-12T16:19:37;0.90;;;0.43;;
27231;SDS011;61835;50.196;6.454;2022-09-12T16:22:02;0.35;;;0.20;;
27231;SDS011;61835;50.196;6.454;2022-09-12T16:24:28;0.60;;;0.30;;
27231;SDS011;61835;50.196;6.454;2022-09-12T16:26:53;0.40;;;0.20;;
27231;SDS011;61835;50.196;6.454;2022-09-12T16:29:19;0.38;;;0.20;;
27231;SDS011;61835;50.196;6.454;2022-09-12T16:31:44;2.45;;;0.80;;
27231;SDS011;61835;50.196;6.454;2022-09-12T16:34:10;0.22;;;0.20;;
27231;SDS011;61835;50.196;6.454;2022-09-12T16:36:35;0.57;;;0.20;;
27231;SDS011;61835;50.196;6.454;2022-09-12T16:39:00;1.08;;;0.30;;
27231;SDS011;61835;50.196;6.454;2022-09-12T16:41:26;0.40;;;0.20;;
27231;SDS011;61835;50.196;6.454;2022-09-12T16:43:52;0.95;;;0.30;;
27231;SDS011;61835;50.196;6.454;2022-09-12T16:46:20;0.68;;;0.30;;
27231;SDS011;61835;50.196;6.454;2022-09-12T16:48:53;0.22;;;0.20;;
27231;SDS011;61835;50.196;6.454;2022-09-12T16:51:21;2.58;;;0.10;;
27231;SDS011;61835;50.196;6.454;2022-09-12T16:53:51;0.20;;;0.10;;
27231;SDS011;61835;50.196;6.454;2022-09-12T16:56:18;0.30;;;0.15;;
27231;SDS011;61835;50.196;6.454;2022-09-12T16:58:44;0.63;;;0.35;;
27231;SDS011;61835;50.196;6.454;2022-09-12T17:01:11;1.10;;;1.00;;
27231;SDS011;61835;50.196;6.454;2022-09-12T17:03:39;1.20;;;0.40;;
27231;SDS011;61835;50.196;6.454;2022-09-12T17:06:15;0.30;;;0.22;;
27231;SDS011;61835;50.196;6.454;2022-09-12T17:08:43;0.30;;;0.20;;
27231;SDS011;61835;50.196;6.454;2022-09-12T17:11:15;2.28;;;0.45;;
27231;SDS011;61835;50.196;6.454;2022-09-12T17:13:47;0.55;;;0.32;;
27231;SDS011;61835;50.196;6.454;2022-09-12T17:16:20;0.77;;;0.30;;
27231;SDS011;61835;50.196;6.454;2022-09-12T17:18:46;0.35;;;0.20;;
27231;SDS011;61835;50.196;6.454;2022-09-12T17:21:12;1.33;;;0.50;;
27231;SDS011;61835;50.196;6.454;2022-09-12T17:23:39;3.80;;;1.08;;
27231;SDS011;61835;50.196;6.454;2022-09-12T17:26:10;1.48;;;0.93;;